sensor_id;sensor_type;location;lat;lon;timestamp;P1;durP1;ratioP1;P2;durP2;ratioP2
39776;SDS011;25453;48.162;14.510;2024-01-30T00:00:33;24.17;;;10.25;;
39776;SDS011;25453;48.162;14.510;2024-01-30T00:03:01;22.83;;;11.55;;
39776;SDS011;25453;48.162;14.510;2024-01-30T00:05:28;21.33;;;9.75;;
39776;SDS011;25453;48.162;14.510;2024-01-30T00:07:55;28.77;;;11.85;;
39776;SDS011;25453;48.162;14.510;2024-01-30T00:10:23;26.05;;;12.07;;
39776;SDS011;25453;48.162;14.510;2024-01-30T00:12:50;25.25;;;11.20;;
39776;SDS011;25453;48.162;14.510;2024-01-30T00:15:17;21.67;;;10.65;;
39776;SDS011;25453;48.162;14.510;2024-01-30T00:17:47;25.83;;;11.95;;
39776;SDS011;25453;48.162;14.510;2024-01-30T00:20:15;19.58;;;9.65;;
39776;SDS011;25453;48.162;14.510;2024-01-30T00:22:42;21.67;;;9.55;;
39776;SDS011;25453;48.162;14.510;2024-01-30T00:25:10;24.70;;;11.13;;
39776;SDS011;25453;48.162;14.510;2024-01-30T00:27:37;23.02;;;10.60;;
39776;SDS011;25453;48.162;14.510;2024-01-30T00:30:04;25.67;;;11.65;;
39776;SDS011;25453;48.162;14.510;2024-01-30T00:32:33;20.73;;;10.63;;
39776;SDS011;25453;48.162;14.510;2024-01-30T00:35:00;26.73;;;10.45;;
39776;SDS011;25453;48.162;14.510;2024-01-30T00:37:28;21.02;;;9.75;;
39776;SDS011;25453;48.162;14.510;2024-01-30T00:39:55;23.35;;;9.88;;
39776;SDS011;25453;48.162;14.510;2024-01-30T00:42:23;19.33;;;9.35;;
39776;SDS011;25453;48.162;14.510;2024-01-30T00:44:50;21.45;;;9.55;;
39776;SDS011;25453;48.162;14.510;2024-01-30T00:47:17;22.20;;;9.85;;
39776;SDS011;25453;48.162;14.510;2024-01-30T00:49:44;21.85;;;10.60;;
39776;SDS011;25453;48.162;14.510;2024-01-30T00:52:12;18.92;;;8.90;;
39776;SDS011;25453;48.162;14.510;2024-01-30T00:54:39;18.85;;;10.27;;
39776;SDS011;25453;48.162;14.510;2024-01-30T00:57:07;22.73;;;10.40;;
39776;SDS011;25453;48.162;14.510;2024-01-30T00:59:34;20.98;;;9.32;;
39776;SDS011;25453;48.162;14.510;2024-01-30T01:02:02;17.63;;;9.43;;
39776;SDS011;25453;48.162;14.510;2024-01-30T01:04:30;22.02;;;9.93;;
39776;SDS011;25453;48.162;14.510;2024-01-30T01:06:57;20.25;;;8.45;;
39776;SDS011;25453;48.162;14.510;2024-01-30T01:09:25;20.70;;;10.30;;
39776;SDS011;25453;48.162;14.510;2024-01-30T01:11:53;19.75;;;8.73;;
39776;SDS011;25453;48.162;14.510;2024-01-30T01:14:20;19.83;;;9.27;;
39776;SDS011;25453;48.162;14.510;2024-01-30T01:16:47;20.70;;;9.82;;
39776;SDS011;25453;48.162;14.510;2024-01-30T01:19:15;18.27;;;9.90;;
39776;SDS011;25453;48.162;14.510;2024-01-30T01:21:42;23.95;;;10.60;;
39776;SDS011;25453;48.162;14.510;2024-01-30T01:24:10;21.83;;;10.23;;
39776;SDS011;25453;48.162;14.510;2024-01-30T01:26:37;22.13;;;9.93;;
39776;SDS011;25453;48.162;14.510;2024-01-30T01:29:06;20.20;;;9.80;;
39776;SDS011;25453;48.162;14.510;2024-01-30T01:31:38;18.27;;;9.02;;
39776;SDS011;25453;48.162;14.510;2024-01-30T01:34:10;24.60;;;10.30;;
39776;SDS011;25453;48.162;14.510;2024-01-30T01:36:38;23.02;;;9.20;;
39776;SDS011;25453;48.162;14.510;2024-01-30T01:39:06;23.77;;;10.32;;
39776;SDS011;25453;48.162;14.510;2024-01-30T01:41:33;20.33;;;9.63;;
39776;SDS011;25453;48.162;14.510;2024-01-30T01:44:01;21.45;;;8.90;;
39776;SDS011;25453;48.162;14.510;2024-01-30T01:46:30;21.25;;;8.98;;
39776;SDS011;25453;48.162;14.510;2024-01-30T01:49:00;22.30;;;9.75;;
39776;SDS011;25453;48.162;14.510;2024-01-30T01:51:31;19.27;;;9.98;;
39776;SDS011;25453;48.162;14.510;2024-01-30T01:54:02;19.10;;;9.38;;
39776;SDS011;25453;48.162;14.510;2024-01-30T01:56:31;17.08;;;8.27;;
39776;SDS011;25453;48.162;14.510;2024-01-30T01:59:04;22.92;;;9.70;;
39776;SDS011;25453;48.162;14.510;2024-01-30T02:01:33;21.75;;;9.18;;
39776;SDS011;25453;48.162;14.510;2024-01-30T02:04:01;19.25;;;8.50;;
39776;SDS011;25453;48.162;14.510;2024-01-30T02:06:28;16.08;;;9.10;;
39776;SDS011;25453;48.162;14.510;2024-01-30T02:08:56;21.95;;;9.57;;
39776;SDS011;25453;48.162;14.510;2024-01-30T02:11:24;21.10;;;9.13;;
39776;SDS011;25453;48.162;14.510;2024-01-30T02:13:52;20.17;;;8.93;;
39776;SDS011;25453;48.162;14.510;2024-01-30T02:16:19;19.27;;;9.00;;
39776;SDS011;25453;48.162;14.510;2024-01-30T02:18:46;14.05;;;7.25;;
39776;SDS011;25453;48.162;14.510;2024-01-30T02:21:18;17.45;;;7.70;;
39776;SDS011;25453;48.162;14.510;2024-01-30T02:23:46;22.50;;;9.93;;
39776;SDS011;25453;48.162;14.510;2024-01-30T02:26:14;17.75;;;8.43;;
39776;SDS011;25453;48.162;14.510;2024-01-30T02:28:42;20.00;;;8.95;;
39776;SDS011;25453;48.162;14.510;2024-01-30T02:31:09;18.85;;;9.10;;
39776;SDS011;25453;48.162;14.510;2024-01-30T02:33:37;16.45;;;7.90;;
39776;SDS011;25453;48.162;14.510;2024-01-30T02:36:04;17.98;;;8.32;;
39776;SDS011;25453;48.162;14.510;2024-01-30T02:38:31;19.25;;;8.50;;
39776;SDS011;25453;48.162;14.510;2024-01-30T02:40:59;18.77;;;8.35;;
39776;SDS011;25453;48.162;14.510;2024-01-30T02:43:26;19.33;;;8.32;;
39776;SDS011;25453;48.162;14.510;2024-01-30T02:45:53;20.85;;;8.30;;
39776;SDS011;25453;48.162;14.510;2024-01-30T02:48:21;15.90;;;8.07;;
39776;SDS011;25453;48.162;14.510;2024-01-30T02:50:48;17.40;;;7.35;;
39776;SDS011;25453;48.162;14.510;2024-01-30T02:53:15;21.85;;;8.10;;
39776;SDS011;25453;48.162;14.510;2024-01-30T02:55:43;18.95;;;8.60;;
39776;SDS011;25453;48.162;14.510;2024-01-30T02:58:10;16.30;;;8.10;;
39776;SDS011;25453;48.162;14.510;2024-01-30T03:00:37;17.98;;;8.70;;
39776;SDS011;25453;48.162;14.510;2024-01-30T03:03:05;17.00;;;8.98;;
39776;SDS011;25453;48.162;14.510;2024-01-30T03:05:32;15.07;;;8.00;;
39776;SDS011;25453;48.162;14.510;2024-01-30T03:08:00;16.98;;;8.15;;
39776;SDS011;25453;48.162;14.510;2024-01-30T03:10:27;18.40;;;8.30;;
39776;SDS011;25453;48.162;14.510;2024-01-30T03:12:54;19.27;;;8.23;;
39776;SDS011;25453;48.162;14.510;2024-01-30T03:15:22;17.13;;;7.65;;
39776;SDS011;25453;48.162;14.510;2024-01-30T03:17:49;16.50;;;7.85;;
39776;SDS011;25453;48.162;14.510;2024-01-30T03:20:17;20.60;;;7.53;;
39776;SDS011;25453;48.162;14.510;2024-01-30T03:22:45;21.80;;;9.05;;
39776;SDS011;25453;48.162;14.510;2024-01-30T03:25:12;13.63;;;6.78;;
39776;SDS011;25453;48.162;14.510;2024-01-30T03:27:39;14.15;;;7.35;;
39776;SDS011;25453;48.162;14.510;2024-01-30T03:30:07;14.25;;;6.88;;
39776;SDS011;25453;48.162;14.510;2024-01-30T03:32:35;15.07;;;6.90;;
39776;SDS011;25453;48.162;14.510;2024-01-30T03:35:02;17.50;;;7.45;;
39776;SDS011;25453;48.162;14.510;2024-01-30T03:37:30;16.05;;;8.32;;
39776;SDS011;25453;48.162;14.510;2024-01-30T03:39:58;18.33;;;7.72;;
39776;SDS011;25453;48.162;14.510;2024-01-30T03:42:25;16.63;;;6.78;;
39776;SDS011;25453;48.162;14.510;2024-01-30T03:44:52;17.17;;;6.80;;
39776;SDS011;25453;48.162;14.510;2024-01-30T03:47:21;15.52;;;7.10;;
39776;SDS011;25453;48.162;14.510;2024-01-30T03:49:48;14.93;;;6.97;;
39776;SDS011;25453;48.162;14.510;2024-01-30T03:52:16;14.20;;;7.13;;
39776;SDS011;25453;48.162;14.510;2024-01-30T03:54:43;14.70;;;6.85;;
39776;SDS011;25453;48.162;14.510;2024-01-30T03:57:11;17.65;;;7.10;;
39776;SDS011;25453;48.162;14.510;2024-01-30T03:59:41;15.18;;;7.00;;
39776;SDS011;25453;48.162;14.510;2024-01-30T04:02:09;15.50;;;6.78;;
39776;SDS011;25453;48.162;14.510;2024-01-30T04:04:38;14.45;;;7.55;;
39776;SDS011;25453;48.162;14.510;2024-01-30T04:07:08;17.15;;;7.82;;
39776;SDS011;25453;48.162;14.510;2024-01-30T04:09:36;13.80;;;7.05;;
39776;SDS011;25453;48.162;14.510;2024-01-30T04:12:04;13.48;;;7.07;;
39776;SDS011;25453;48.162;14.510;2024-01-30T04:14:32;13.13;;;7.18;;
39776;SDS011;25453;48.162;14.510;2024-01-30T04:16:59;13.82;;;6.05;;
39776;SDS011;25453;48.162;14.510;2024-01-30T04:19:26;13.48;;;5.93;;
39776;SDS011;25453;48.162;14.510;2024-01-30T04:21:54;15.85;;;6.97;;
39776;SDS011;25453;48.162;14.510;2024-01-30T04:24:21;18.13;;;6.88;;
39776;SDS011;25453;48.162;14.510;2024-01-30T04:26:48;16.05;;;7.53;;
39776;SDS011;25453;48.162;14.510;2024-01-30T04:29:15;15.27;;;6.22;;
39776;SDS011;25453;48.162;14.510;2024-01-30T04:31:43;12.88;;;6.15;;
39776;SDS011;25453;48.162;14.510;2024-01-30T04:34:10;14.18;;;5.95;;
39776;SDS011;25453;48.162;14.510;2024-01-30T04:36:37;15.18;;;6.43;;
39776;SDS011;25453;48.162;14.510;2024-01-30T04:39:04;14.52;;;6.63;;
39776;SDS011;25453;48.162;14.510;2024-01-30T04:41:32;15.20;;;7.90;;
39776;SDS011;25453;48.162;14.510;2024-01-30T04:44:00;17.38;;;7.40;;
39776;SDS011;25453;48.162;14.510;2024-01-30T04:46:27;18.75;;;8.43;;
39776;SDS011;25453;48.162;14.510;2024-01-30T04:48:55;20.92;;;8.32;;
39776;SDS011;25453;48.162;14.510;2024-01-30T04:51:22;16.95;;;9.40;;
39776;SDS011;25453;48.162;14.510;2024-01-30T04:53:49;17.67;;;7.93;;
39776;SDS011;25453;48.162;14.510;2024-01-30T04:56:17;23.60;;;8.73;;
39776;SDS011;25453;48.162;14.510;2024-01-30T04:58:44;19.70;;;8.70;;
39776;SDS011;25453;48.162;14.510;2024-01-30T05:01:14;18.80;;;8.52;;
39776;SDS011;25453;48.162;14.510;2024-01-30T05:03:45;16.70;;;7.60;;
39776;SDS011;25453;48.162;14.510;2024-01-30T05:06:12;19.65;;;8.50;;
39776;SDS011;25453;48.162;14.510;2024-01-30T05:08:39;25.45;;;8.85;;
39776;SDS011;25453;48.162;14.510;2024-01-30T05:11:06;19.33;;;7.78;;
39776;SDS011;25453;48.162;14.510;2024-01-30T05:13:34;18.95;;;8.23;;
39776;SDS011;25453;48.162;14.510;2024-01-30T05:16:01;17.63;;;8.10;;
39776;SDS011;25453;48.162;14.510;2024-01-30T05:18:30;21.00;;;8.38;;
39776;SDS011;25453;48.162;14.510;2024-01-30T05:20:58;19.48;;;8.30;;
39776;SDS011;25453;48.162;14.510;2024-01-30T05:23:25;23.60;;;8.15;;
39776;SDS011;25453;48.162;14.510;2024-01-30T05:25:53;21.70;;;8.23;;
39776;SDS011;25453;48.162;14.510;2024-01-30T05:28:21;17.13;;;7.50;;
39776;SDS011;25453;48.162;14.510;2024-01-30T05:30:48;20.10;;;7.72;;
39776;SDS011;25453;48.162;14.510;2024-01-30T05:33:15;21.60;;;7.47;;
39776;SDS011;25453;48.162;14.510;2024-01-30T05:35:43;18.23;;;8.07;;
39776;SDS011;25453;48.162;14.510;2024-01-30T05:38:11;15.85;;;7.95;;
39776;SDS011;25453;48.162;14.510;2024-01-30T05:40:38;17.23;;;8.30;;
39776;SDS011;25453;48.162;14.510;2024-01-30T05:43:06;17.40;;;8.40;;
39776;SDS011;25453;48.162;14.510;2024-01-30T05:45:34;16.98;;;7.80;;
39776;SDS011;25453;48.162;14.510;2024-01-30T05:48:02;17.52;;;7.38;;
39776;SDS011;25453;48.162;14.510;2024-01-30T05:50:30;16.38;;;7.80;;
39776;SDS011;25453;48.162;14.510;2024-01-30T05:52:58;15.27;;;7.53;;
39776;SDS011;25453;48.162;14.510;2024-01-30T05:55:26;14.57;;;7.90;;
39776;SDS011;25453;48.162;14.510;2024-01-30T05:57:54;17.58;;;7.72;;
39776;SDS011;25453;48.162;14.510;2024-01-30T06:00:21;19.48;;;7.43;;
39776;SDS011;25453;48.162;14.510;2024-01-30T06:02:48;12.52;;;6.60;;
39776;SDS011;25453;48.162;14.510;2024-01-30T06:05:16;16.15;;;7.80;;
39776;SDS011;25453;48.162;14.510;2024-01-30T06:07:43;17.90;;;7.10;;
39776;SDS011;25453;48.162;14.510;2024-01-30T06:10:11;20.42;;;7.53;;
39776;SDS011;25453;48.162;14.510;2024-01-30T06:12:38;15.13;;;7.13;;
39776;SDS011;25453;48.162;14.510;2024-01-30T06:15:06;15.77;;;7.63;;
39776;SDS011;25453;48.162;14.510;2024-01-30T06:17:34;14.15;;;6.65;;
39776;SDS011;25453;48.162;14.510;2024-01-30T06:20:01;19.00;;;6.63;;
39776;SDS011;25453;48.162;14.510;2024-01-30T06:22:29;14.43;;;7.30;;
39776;SDS011;25453;48.162;14.510;2024-01-30T06:24:56;17.98;;;7.93;;
39776;SDS011;25453;48.162;14.510;2024-01-30T06:27:23;16.13;;;6.78;;
39776;SDS011;25453;48.162;14.510;2024-01-30T06:29:51;12.88;;;6.88;;
39776;SDS011;25453;48.162;14.510;2024-01-30T06:32:18;13.10;;;6.65;;
39776;SDS011;25453;48.162;14.510;2024-01-30T06:34:46;16.73;;;7.25;;
39776;SDS011;25453;48.162;14.510;2024-01-30T06:37:13;14.27;;;5.95;;
39776;SDS011;25453;48.162;14.510;2024-01-30T06:39:40;12.88;;;6.82;;
39776;SDS011;25453;48.162;14.510;2024-01-30T06:42:08;14.02;;;6.72;;
39776;SDS011;25453;48.162;14.510;2024-01-30T06:44:35;13.27;;;6.57;;
39776;SDS011;25453;48.162;14.510;2024-01-30T06:47:02;13.30;;;6.32;;
39776;SDS011;25453;48.162;14.510;2024-01-30T06:49:30;13.25;;;6.70;;
39776;SDS011;25453;48.162;14.510;2024-01-30T06:51:58;13.85;;;7.65;;
39776;SDS011;25453;48.162;14.510;2024-01-30T06:54:25;14.95;;;7.63;;
39776;SDS011;25453;48.162;14.510;2024-01-30T06:56:53;15.98;;;7.38;;
39776;SDS011;25453;48.162;14.510;2024-01-30T06:59:20;21.13;;;8.65;;
39776;SDS011;25453;48.162;14.510;2024-01-30T07:01:47;13.93;;;7.32;;
39776;SDS011;25453;48.162;14.510;2024-01-30T07:04:15;20.65;;;8.20;;
39776;SDS011;25453;48.162;14.510;2024-01-30T07:06:43;18.48;;;9.30;;
39776;SDS011;25453;48.162;14.510;2024-01-30T07:09:11;22.20;;;9.65;;
39776;SDS011;25453;48.162;14.510;2024-01-30T07:11:40;22.50;;;9.52;;
39776;SDS011;25453;48.162;14.510;2024-01-30T07:14:08;18.38;;;9.00;;
39776;SDS011;25453;48.162;14.510;2024-01-30T07:16:36;22.65;;;9.20;;
39776;SDS011;25453;48.162;14.510;2024-01-30T07:19:03;22.95;;;8.32;;
39776;SDS011;25453;48.162;14.510;2024-01-30T07:21:30;25.48;;;10.73;;
39776;SDS011;25453;48.162;14.510;2024-01-30T07:23:58;20.60;;;9.38;;
39776;SDS011;25453;48.162;14.510;2024-01-30T07:26:25;22.45;;;10.13;;
39776;SDS011;25453;48.162;14.510;2024-01-30T07:28:53;31.85;;;12.20;;
39776;SDS011;25453;48.162;14.510;2024-01-30T07:31:21;28.63;;;11.85;;
39776;SDS011;25453;48.162;14.510;2024-01-30T07:33:50;25.98;;;11.52;;
39776;SDS011;25453;48.162;14.510;2024-01-30T07:36:18;30.25;;;12.07;;
39776;SDS011;25453;48.162;14.510;2024-01-30T07:38:45;30.30;;;12.60;;
39776;SDS011;25453;48.162;14.510;2024-01-30T07:41:12;25.77;;;11.23;;
39776;SDS011;25453;48.162;14.510;2024-01-30T07:43:40;21.75;;;9.45;;
39776;SDS011;25453;48.162;14.510;2024-01-30T07:46:07;26.23;;;10.98;;
39776;SDS011;25453;48.162;14.510;2024-01-30T07:48:35;26.83;;;11.63;;
39776;SDS011;25453;48.162;14.510;2024-01-30T07:51:02;23.30;;;10.23;;
39776;SDS011;25453;48.162;14.510;2024-01-30T07:53:30;27.38;;;10.55;;
39776;SDS011;25453;48.162;14.510;2024-01-30T07:55:57;22.38;;;10.27;;
39776;SDS011;25453;48.162;14.510;2024-01-30T07:58:25;24.42;;;10.02;;
39776;SDS011;25453;48.162;14.510;2024-01-30T08:00:54;26.33;;;11.52;;
39776;SDS011;25453;48.162;14.510;2024-01-30T08:03:25;24.42;;;10.85;;
39776;SDS011;25453;48.162;14.510;2024-01-30T08:05:53;24.70;;;11.23;;
39776;SDS011;25453;48.162;14.510;2024-01-30T08:08:20;23.80;;;11.60;;
39776;SDS011;25453;48.162;14.510;2024-01-30T08:10:48;24.05;;;10.27;;
39776;SDS011;25453;48.162;14.510;2024-01-30T08:13:16;26.42;;;10.57;;
39776;SDS011;25453;48.162;14.510;2024-01-30T08:15:43;22.60;;;9.77;;
39776;SDS011;25453;48.162;14.510;2024-01-30T08:18:10;21.52;;;9.80;;
39776;SDS011;25453;48.162;14.510;2024-01-30T08:20:38;23.95;;;10.93;;
39776;SDS011;25453;48.162;14.510;2024-01-30T08:23:05;21.13;;;8.95;;
39776;SDS011;25453;48.162;14.510;2024-01-30T08:25:32;21.08;;;9.07;;
39776;SDS011;25453;48.162;14.510;2024-01-30T08:28:00;24.00;;;10.57;;
39776;SDS011;25453;48.162;14.510;2024-01-30T08:30:28;25.90;;;10.32;;
39776;SDS011;25453;48.162;14.510;2024-01-30T08:32:55;23.58;;;10.20;;
39776;SDS011;25453;48.162;14.510;2024-01-30T08:35:23;18.08;;;8.98;;
39776;SDS011;25453;48.162;14.510;2024-01-30T08:37:50;19.35;;;9.05;;
39776;SDS011;25453;48.162;14.510;2024-01-30T08:40:18;26.30;;;10.93;;
39776;SDS011;25453;48.162;14.510;2024-01-30T08:42:45;22.23;;;9.50;;
39776;SDS011;25453;48.162;14.510;2024-01-30T08:45:13;20.98;;;10.23;;
39776;SDS011;25453;48.162;14.510;2024-01-30T08:47:40;26.02;;;12.23;;
39776;SDS011;25453;48.162;14.510;2024-01-30T08:50:09;26.40;;;11.20;;
39776;SDS011;25453;48.162;14.510;2024-01-30T08:52:37;22.52;;;9.85;;
39776;SDS011;25453;48.162;14.510;2024-01-30T08:55:05;23.63;;;10.05;;
39776;SDS011;25453;48.162;14.510;2024-01-30T08:57:32;30.15;;;12.02;;
39776;SDS011;25453;48.162;14.510;2024-01-30T08:59:59;24.85;;;10.77;;
39776;SDS011;25453;48.162;14.510;2024-01-30T09:02:27;27.40;;;10.68;;
39776;SDS011;25453;48.162;14.510;2024-01-30T09:04:54;24.63;;;9.95;;
39776;SDS011;25453;48.162;14.510;2024-01-30T09:07:22;20.35;;;9.48;;
39776;SDS011;25453;48.162;14.510;2024-01-30T09:09:49;23.25;;;9.73;;
39776;SDS011;25453;48.162;14.510;2024-01-30T09:12:16;21.42;;;9.32;;
39776;SDS011;25453;48.162;14.510;2024-01-30T09:14:44;23.05;;;10.00;;
39776;SDS011;25453;48.162;14.510;2024-01-30T09:17:11;24.20;;;10.93;;
39776;SDS011;25453;48.162;14.510;2024-01-30T09:19:40;22.00;;;10.52;;
39776;SDS011;25453;48.162;14.510;2024-01-30T09:22:08;24.75;;;10.05;;
39776;SDS011;25453;48.162;14.510;2024-01-30T09:24:35;21.70;;;9.18;;
39776;SDS011;25453;48.162;14.510;2024-01-30T09:27:02;26.10;;;11.30;;
39776;SDS011;25453;48.162;14.510;2024-01-30T09:29:30;25.13;;;10.68;;
39776;SDS011;25453;48.162;14.510;2024-01-30T09:31:57;27.95;;;10.70;;
39776;SDS011;25453;48.162;14.510;2024-01-30T09:34:24;27.98;;;11.95;;
39776;SDS011;25453;48.162;14.510;2024-01-30T09:36:52;25.38;;;11.23;;
39776;SDS011;25453;48.162;14.510;2024-01-30T09:39:19;26.67;;;11.57;;
39776;SDS011;25453;48.162;14.510;2024-01-30T09:42:02;26.10;;;11.65;;
39776;SDS011;25453;48.162;14.510;2024-01-30T09:44:38;25.83;;;11.02;;
39776;SDS011;25453;48.162;14.510;2024-01-30T09:47:09;28.02;;;10.95;;
39776;SDS011;25453;48.162;14.510;2024-01-30T09:49:37;25.70;;;10.82;;
39776;SDS011;25453;48.162;14.510;2024-01-30T09:52:06;25.23;;;10.80;;
39776;SDS011;25453;48.162;14.510;2024-01-30T09:54:34;24.52;;;10.38;;
39776;SDS011;25453;48.162;14.510;2024-01-30T09:57:03;26.60;;;11.48;;
39776;SDS011;25453;48.162;14.510;2024-01-30T09:59:31;25.52;;;11.02;;
39776;SDS011;25453;48.162;14.510;2024-01-30T10:02:00;25.00;;;11.52;;
39776;SDS011;25453;48.162;14.510;2024-01-30T10:04:27;27.02;;;11.57;;
39776;SDS011;25453;48.162;14.510;2024-01-30T10:06:55;23.42;;;10.05;;
39776;SDS011;25453;48.162;14.510;2024-01-30T10:09:22;24.85;;;10.10;;
39776;SDS011;25453;48.162;14.510;2024-01-30T10:11:50;20.58;;;8.88;;
39776;SDS011;25453;48.162;14.510;2024-01-30T10:14:18;22.20;;;11.15;;
39776;SDS011;25453;48.162;14.510;2024-01-30T10:16:46;26.40;;;10.98;;
39776;SDS011;25453;48.162;14.510;2024-01-30T10:19:13;23.02;;;9.73;;
39776;SDS011;25453;48.162;14.510;2024-01-30T10:21:41;27.52;;;10.07;;
39776;SDS011;25453;48.162;14.510;2024-01-30T10:24:08;27.17;;;11.27;;
39776;SDS011;25453;48.162;14.510;2024-01-30T10:26:39;24.10;;;10.77;;
39776;SDS011;25453;48.162;14.510;2024-01-30T10:29:06;26.67;;;10.52;;
39776;SDS011;25453;48.162;14.510;2024-01-30T10:31:34;21.05;;;10.18;;
39776;SDS011;25453;48.162;14.510;2024-01-30T10:34:02;22.00;;;9.23;;
39776;SDS011;25453;48.162;14.510;2024-01-30T10:36:42;25.10;;;9.82;;
39776;SDS011;25453;48.162;14.510;2024-01-30T10:39:15;23.67;;;9.07;;
39776;SDS011;25453;48.162;14.510;2024-01-30T10:41:44;23.05;;;9.93;;
39776;SDS011;25453;48.162;14.510;2024-01-30T10:44:13;21.20;;;8.48;;
39776;SDS011;25453;48.162;14.510;2024-01-30T10:46:45;20.10;;;8.77;;
39776;SDS011;25453;48.162;14.510;2024-01-30T10:49:22;19.52;;;8.45;;
39776;SDS011;25453;48.162;14.510;2024-01-30T10:51:51;23.02;;;8.57;;
39776;SDS011;25453;48.162;14.510;2024-01-30T10:54:20;22.13;;;9.23;;
39776;SDS011;25453;48.162;14.510;2024-01-30T10:56:47;22.63;;;10.27;;
39776;SDS011;25453;48.162;14.510;2024-01-30T10:59:16;24.35;;;10.10;;
39776;SDS011;25453;48.162;14.510;2024-01-30T11:01:44;26.33;;;10.57;;
39776;SDS011;25453;48.162;14.510;2024-01-30T11:04:12;23.15;;;9.35;;
39776;SDS011;25453;48.162;14.510;2024-01-30T11:06:43;22.48;;;9.95;;
39776;SDS011;25453;48.162;14.510;2024-01-30T11:09:11;20.98;;;9.23;;
39776;SDS011;25453;48.162;14.510;2024-01-30T11:11:52;21.33;;;9.60;;
39776;SDS011;25453;48.162;14.510;2024-01-30T11:14:30;24.92;;;8.35;;
39776;SDS011;25453;48.162;14.510;2024-01-30T11:16:57;20.05;;;9.00;;
39776;SDS011;25453;48.162;14.510;2024-01-30T11:19:27;22.48;;;10.07;;
39776;SDS011;25453;48.162;14.510;2024-01-30T11:22:00;26.30;;;9.50;;
39776;SDS011;25453;48.162;14.510;2024-01-30T11:24:27;23.63;;;10.82;;
39776;SDS011;25453;48.162;14.510;2024-01-30T11:26:55;22.20;;;9.32;;
39776;SDS011;25453;48.162;14.510;2024-01-30T11:29:27;22.33;;;9.85;;
39776;SDS011;25453;48.162;14.510;2024-01-30T11:31:55;18.83;;;7.88;;
39776;SDS011;25453;48.162;14.510;2024-01-30T11:34:25;18.45;;;8.48;;
39776;SDS011;25453;48.162;14.510;2024-01-30T11:36:55;23.23;;;8.77;;
39776;SDS011;25453;48.162;14.510;2024-01-30T11:39:27;22.52;;;10.82;;
39776;SDS011;25453;48.162;14.510;2024-01-30T11:41:57;21.75;;;8.77;;
39776;SDS011;25453;48.162;14.510;2024-01-30T11:44:26;22.08;;;10.55;;
39776;SDS011;25453;48.162;14.510;2024-01-30T11:46:53;23.58;;;9.57;;
39776;SDS011;25453;48.162;14.510;2024-01-30T11:49:27;20.83;;;9.00;;
39776;SDS011;25453;48.162;14.510;2024-01-30T11:51:55;22.10;;;9.75;;
39776;SDS011;25453;48.162;14.510;2024-01-30T11:54:23;23.35;;;9.40;;
39776;SDS011;25453;48.162;14.510;2024-01-30T11:56:50;21.85;;;9.00;;
39776;SDS011;25453;48.162;14.510;2024-01-30T11:59:18;18.80;;;8.85;;
39776;SDS011;25453;48.162;14.510;2024-01-30T12:01:45;20.55;;;9.30;;
39776;SDS011;25453;48.162;14.510;2024-01-30T12:04:12;22.95;;;9.23;;
39776;SDS011;25453;48.162;14.510;2024-01-30T12:06:39;23.60;;;9.32;;
39776;SDS011;25453;48.162;14.510;2024-01-30T12:09:08;19.45;;;8.02;;
39776;SDS011;25453;48.162;14.510;2024-01-30T12:11:45;24.17;;;8.68;;
39776;SDS011;25453;48.162;14.510;2024-01-30T12:14:13;18.38;;;9.05;;
39776;SDS011;25453;48.162;14.510;2024-01-30T12:16:41;22.52;;;10.05;;
39776;SDS011;25453;48.162;14.510;2024-01-30T12:19:09;19.92;;;8.82;;
39776;SDS011;25453;48.162;14.510;2024-01-30T12:21:37;20.65;;;9.60;;
39776;SDS011;25453;48.162;14.510;2024-01-30T12:24:05;18.08;;;7.85;;
39776;SDS011;25453;48.162;14.510;2024-01-30T12:26:34;16.80;;;7.55;;
39776;SDS011;25453;48.162;14.510;2024-01-30T12:29:03;25.83;;;10.65;;
39776;SDS011;25453;48.162;14.510;2024-01-30T12:31:32;25.48;;;9.35;;
39776;SDS011;25453;48.162;14.510;2024-01-30T12:33:59;23.65;;;8.57;;
39776;SDS011;25453;48.162;14.510;2024-01-30T12:36:28;22.58;;;9.60;;
39776;SDS011;25453;48.162;14.510;2024-01-30T12:38:58;20.83;;;9.77;;
39776;SDS011;25453;48.162;14.510;2024-01-30T12:41:26;20.10;;;9.18;;
39776;SDS011;25453;48.162;14.510;2024-01-30T12:43:57;19.92;;;8.27;;
39776;SDS011;25453;48.162;14.510;2024-01-30T12:46:27;20.08;;;8.88;;
39776;SDS011;25453;48.162;14.510;2024-01-30T12:48:55;23.67;;;9.57;;
39776;SDS011;25453;48.162;14.510;2024-01-30T12:51:23;22.65;;;8.50;;
39776;SDS011;25453;48.162;14.510;2024-01-30T12:53:51;23.05;;;8.15;;
39776;SDS011;25453;48.162;14.510;2024-01-30T12:56:21;17.88;;;7.72;;
39776;SDS011;25453;48.162;14.510;2024-01-30T12:58:49;20.23;;;7.78;;
39776;SDS011;25453;48.162;14.510;2024-01-30T13:01:19;22.38;;;8.15;;
39776;SDS011;25453;48.162;14.510;2024-01-30T13:03:47;21.73;;;9.75;;
39776;SDS011;25453;48.162;14.510;2024-01-30T13:06:15;20.17;;;9.68;;
39776;SDS011;25453;48.162;14.510;2024-01-30T13:08:42;23.88;;;9.63;;
39776;SDS011;25453;48.162;14.510;2024-01-30T13:11:10;25.90;;;9.43;;
39776;SDS011;25453;48.162;14.510;2024-01-30T13:13:46;27.58;;;11.35;;
39776;SDS011;25453;48.162;14.510;2024-01-30T13:16:14;28.55;;;10.25;;
39776;SDS011;25453;48.162;14.510;2024-01-30T13:18:41;25.83;;;10.15;;
39776;SDS011;25453;48.162;14.510;2024-01-30T13:21:10;22.55;;;9.60;;
39776;SDS011;25453;48.162;14.510;2024-01-30T13:23:37;23.48;;;9.48;;
39776;SDS011;25453;48.162;14.510;2024-01-30T13:26:04;22.33;;;9.07;;
39776;SDS011;25453;48.162;14.510;2024-01-30T13:28:33;21.55;;;8.95;;
39776;SDS011;25453;48.162;14.510;2024-01-30T13:31:00;20.70;;;9.35;;
39776;SDS011;25453;48.162;14.510;2024-01-30T13:33:27;24.38;;;10.55;;
39776;SDS011;25453;48.162;14.510;2024-01-30T13:35:55;24.23;;;10.77;;
39776;SDS011;25453;48.162;14.510;2024-01-30T13:38:22;21.13;;;10.10;;
39776;SDS011;25453;48.162;14.510;2024-01-30T13:40:49;22.23;;;9.57;;
39776;SDS011;25453;48.162;14.510;2024-01-30T13:43:17;22.05;;;9.88;;
39776;SDS011;25453;48.162;14.510;2024-01-30T13:45:44;22.42;;;10.10;;
39776;SDS011;25453;48.162;14.510;2024-01-30T13:48:12;25.85;;;10.60;;
39776;SDS011;25453;48.162;14.510;2024-01-30T13:50:40;21.40;;;10.25;;
39776;SDS011;25453;48.162;14.510;2024-01-30T13:53:07;26.25;;;10.30;;
39776;SDS011;25453;48.162;14.510;2024-01-30T13:55:34;25.13;;;10.57;;
39776;SDS011;25453;48.162;14.510;2024-01-30T13:58:02;25.40;;;9.80;;
39776;SDS011;25453;48.162;14.510;2024-01-30T14:00:29;21.77;;;10.85;;
39776;SDS011;25453;48.162;14.510;2024-01-30T14:02:57;26.23;;;11.80;;
39776;SDS011;25453;48.162;14.510;2024-01-30T14:05:26;27.13;;;12.25;;
39776;SDS011;25453;48.162;14.510;2024-01-30T14:07:57;25.58;;;11.15;;
39776;SDS011;25453;48.162;14.510;2024-01-30T14:10:25;24.42;;;10.48;;
39776;SDS011;25453;48.162;14.510;2024-01-30T14:12:52;23.33;;;10.10;;
39776;SDS011;25453;48.162;14.510;2024-01-30T14:15:20;23.48;;;10.02;;
39776;SDS011;25453;48.162;14.510;2024-01-30T14:17:55;28.33;;;10.25;;
39776;SDS011;25453;48.162;14.510;2024-01-30T14:20:27;21.33;;;10.07;;
39776;SDS011;25453;48.162;14.510;2024-01-30T14:22:55;23.77;;;10.82;;